Time;durP1;ratioP1;P1;durP2;ratioP2;P2;SDS_P1;SDS_P2;PMS_P1;PMS_P2;Temp;Humidity;BMP_temperature;BMP_pressure;BME280_temperature;BME280_humidity;BME280_pressure;Samples;Min_cycle;Max_cycle;Signal;HPM_P1;HPM_P2
2021/01/22 00:00:32;;;;;;;30.08;18.02;;;;;;;0.12;85.15;97716.28;1690591;84;21188;-67
2021/01/22 00:03:02;;;;;;;27.35;15.68;;;;;;;0.09;85.46;97710.05;1690452;85;21120;-64
2021/01/22 00:05:30;;;;;;;26.65;16.67;;;;;;;0.08;85.47;97714.32;1690359;84;21208;-64
2021/01/22 00:08:00;;;;;;;31.23;15.35;;;;;;;0.15;85.31;97719.48;1690647;85;21203;-67
2021/01/22 00:10:28;;;;;;;47.73;15.43;;;;;;;0.17;85.21;97714.28;1691052;85;21187;-66
2021/01/22 00:12:56;;;;;;;33.13;14.33;;;;;;;0.16;85.19;97710.89;1690475;84;21182;-67
2021/01/22 00:15:25;;;;;;;25.17;13.25;;;;;;;0.22;85.04;97719.52;1690488;85;21203;-67
2021/01/22 00:17:53;;;;;;;27.75;15.48;;;;;;;0.29;84.97;97708.49;1690637;85;21219;-67
2021/01/22 00:20:22;;;;;;;27.45;15.43;;;;;;;0.35;84.85;97706.41;1691018;85;21179;-63
2021/01/22 00:22:50;;;;;;;41.55;20.57;;;;;;;0.43;84.63;97713.64;1690876;85;21175;-64
2021/01/22 00:25:18;;;;;;;26.77;16.07;;;;;;;0.47;84.60;97710.00;1690765;85;21144;-64
2021/01/22 00:27:46;;;;;;;40.30;17.23;;;;;;;0.52;84.32;97709.75;1690704;85;21573;-64
2021/01/22 00:30:16;;;;;;;29.65;16.10;;;;;;;0.54;84.30;97698.55;1690825;85;21172;-63
2021/01/22 00:32:45;;;;;;;33.15;18.42;;;;;;;0.47;84.48;97705.72;1690635;85;21183;-65
2021/01/22 00:35:13;;;;;;;25.97;13.60;;;;;;;0.48;84.21;97707.37;1690621;85;21219;-66
2021/01/22 00:37:41;;;;;;;29.32;15.05;;;;;;;0.49;83.96;97706.92;1690688;85;21220;-64
2021/01/22 00:40:10;;;;;;;28.73;16.77;;;;;;;0.48;84.04;97703.55;1690689;85;21246;-63
2021/01/22 00:42:39;;;;;;;39.83;15.13;;;;;;;0.50;84.79;97695.80;1690549;85;21624;-63
2021/01/22 00:45:09;;;;;;;22.55;14.15;;;;;;;0.48;84.63;97697.61;1690705;85;21148;-64
2021/01/22 00:47:37;;;;;;;22.85;13.70;;;;;;;0.47;85.04;97703.62;1690227;83;21183;-64
2021/01/22 00:50:07;;;;;;;28.50;18.70;;;;;;;0.48;84.69;97700.98;1693021;85;21179;-64
2021/01/22 00:52:36;;;;;;;26.93;14.87;;;;;;;0.46;84.86;97702.82;1693314;85;21207;-64
2021/01/22 00:55:08;;;;;;;30.45;16.55;;;;;;;0.48;84.95;97698.88;1693323;84;21451;-64
2021/01/22 00:57:52;;;;;;;25.77;15.85;;;;;;;0.47;84.79;97707.00;1693091;84;21617;-64
2021/01/22 01:00:23;;;;;;;29.80;17.57;;;;;;;0.53;84.70;97699.91;1693236;85;21185;-64
2021/01/22 01:02:57;;;;;;;23.05;16.00;;;;;;;0.54;84.87;97693.44;1692409;85;21639;-64
2021/01/22 01:05:25;;;;;;;26.80;15.50;;;;;;;0.49;85.22;97689.04;1693319;85;21187;-63
2021/01/22 01:08:01;;;;;;;21.25;15.38;;;;;;;0.51;84.77;97692.31;1784017;79;21189;-64
2021/01/22 01:10:31;;;;;;;25.45;15.95;;;;;;;0.54;84.58;97690.06;1790230;79;21601;-64
2021/01/22 01:13:01;;;;;;;27.75;17.95;;;;;;;0.52;84.39;97685.03;1789254;79;21581;-69
2021/01/22 01:15:48;;;;;;;23.83;13.15;;;;;;;0.39;84.79;97688.73;1790475;79;21295;-63
2021/01/22 01:18:16;;;;;;;23.47;16.02;;;;;;;0.39;84.59;97678.51;1790632;79;21287;-66
2021/01/22 01:20:46;;;;;;;23.67;15.83;;;;;;;0.34;84.96;97670.76;1789171;79;21267;-65
2021/01/22 01:23:47;;;;;;;21.87;14.58;;;;;;;0.30;85.24;97658.62;1790021;79;21310;-64
2021/01/22 01:26:15;;;;;;;27.65;14.78;;;;;;;0.32;85.12;97664.45;1789576;79;21718;-63
2021/01/22 01:28:43;;;;;;;23.15;13.53;;;;;;;0.37;84.92;97665.02;1789947;79;21592;-65
2021/01/22 01:31:11;;;;;;;20.72;16.67;;;;;;;0.38;84.83;97671.78;1790181;79;21271;-64
2021/01/22 01:33:39;;;;;;;25.20;15.90;;;;;;;0.37;84.69;97671.85;1790142;79;21156;-66
2021/01/22 01:36:10;;;;;;;22.65;17.30;;;;;;;0.35;84.68;97661.70;1790314;79;21275;-65
2021/01/22 01:38:39;;;;;;;21.07;14.75;;;;;;;0.22;85.48;97668.89;1790103;79;21725;-65
2021/01/22 01:41:08;;;;;;;29.63;14.93;;;;;;;0.20;85.45;97660.48;1790152;79;21192;-63
2021/01/22 01:43:37;;;;;;;20.77;15.08;;;;;;;0.21;85.29;97665.95;1790181;79;21355;-63
2021/01/22 01:46:05;;;;;;;28.70;16.00;;;;;;;0.26;85.16;97667.81;1789596;79;21169;-62
2021/01/22 01:48:34;;;;;;;28.67;15.72;;;;;;;0.29;85.09;97656.97;1789880;79;21180;-67
2021/01/22 01:51:06;;;;;;;26.97;14.53;;;;;;;0.29;84.80;97656.97;1789628;79;21149;-64
2021/01/22 01:53:34;;;;;;;22.02;14.83;;;;;;;0.37;84.92;97662.46;1789434;79;21146;-67
2021/01/22 01:56:04;;;;;;;29.60;15.72;;;;;;;0.33;84.45;97632.89;1789665;79;21299;-67
2021/01/22 01:58:32;;;;;;;24.00;14.93;;;;;;;0.41;84.37;97641.39;1789709;79;21291;-64
2021/01/22 02:01:01;;;;;;;29.95;16.95;;;;;;;0.46;84.30;97635.12;1789720;79;21184;-67
2021/01/22 02:03:29;;;;;;;25.72;16.67;;;;;;;0.50;84.28;97639.59;1789852;79;21306;-65
2021/01/22 02:05:58;;;;;;;38.80;17.40;;;;;;;0.54;84.27;97630.84;1789853;79;21496;-67
2021/01/22 02:08:26;;;;;;;29.85;18.48;;;;;;;0.46;84.09;97632.57;1786383;79;21110;-64
2021/01/22 02:10:55;;;;;;;30.35;17.80;;;;;;;0.47;83.97;97636.75;1786303;79;21146;-64
2021/01/22 02:13:23;;;;;;;24.98;16.35;;;;;;;0.38;83.97;97629.63;1786195;79;21222;-64
2021/01/22 02:15:52;;;;;;;29.80;16.70;;;;;;;0.28;84.23;97628.95;1786182;79;21446;-63
2021/01/22 02:18:24;;;;;;;29.77;15.10;;;;;;;0.09;85.55;97633.00;1786185;79;21186;-65
2021/01/22 02:24:30;;;;;;;22.85;13.45;;;;;;;0.17;84.61;97621.91;1749720;81;21172;-64
2021/01/22 02:27:09;;;;;;;21.45;13.05;;;;;;;0.01;84.87;97610.91;1750160;81;21215;-64
2021/01/22 02:29:38;;;;;;;21.95;14.40;;;;;;;-0.09;85.86;97599.13;1750059;81;21180;-64
2021/01/22 02:32:08;;;;;;;27.17;15.03;;;;;;;-0.10;86.25;97614.07;1749838;81;21195;-63
2021/01/22 02:34:40;;;;;;;29.92;15.50;;;;;;;-0.05;85.65;97610.81;1689705;84;21177;-63
2021/01/22 02:40:21;;;;;;;24.60;13.70;;;;;;;-0.01;85.31;97608.46;1701023;84;21123;-65
2021/01/22 02:42:51;;;;;;;26.93;15.08;;;;;;;-0.05;85.83;97607.44;1701288;84;21210;-63
2021/01/22 02:45:21;;;;;;;20.45;13.48;;;;;;;-0.05;85.91;97604.88;1701096;84;21174;-62
2021/01/22 02:47:51;;;;;;;26.87;13.75;;;;;;;-0.03;85.52;97601.33;1700895;84;21147;-62
2021/01/22 02:50:34;;;;;;;18.55;13.62;;;;;;;0.01;85.52;97603.25;1700812;84;21178;-64
2021/01/22 02:53:06;;;;;;;25.05;14.30;;;;;;;0.06;85.29;97601.72;1700964;84;22405;-64
2021/01/22 02:55:36;;;;;;;26.20;13.95;;;;;;;0.09;85.12;97593.88;1700849;84;21195;-62
2021/01/22 02:58:32;;;;;;;24.12;15.90;;;;;;;0.00;85.50;97582.00;1701013;84;21183;-62
2021/01/22 03:01:09;;;;;;;26.70;13.43;;;;;;;-0.04;85.84;97591.22;1701218;84;21194;-65
2021/01/22 03:04:09;;;;;;;18.98;12.47;;;;;;;-0.05;85.44;97595.50;1701335;84;21206;-63
2021/01/22 03:06:42;;;;;;;21.10;10.88;;;;;;;-0.11;85.84;97608.59;1702017;84;21183;-70
2021/01/22 03:09:18;;;;;;;21.77;14.33;;;;;;;-0.16;85.39;97613.15;1701719;84;21159;-63
2021/01/22 03:11:51;;;;;;;20.35;14.85;;;;;;;-0.34;86.72;97597.56;1701123;84;21190;-65
2021/01/22 03:14:22;;;;;;;20.10;11.50;;;;;;;-0.54;87.65;97597.38;1700939;84;21175;-65
2021/01/22 03:16:51;;;;;;;23.35;13.93;;;;;;;-0.50;87.17;97595.03;1701156;84;21222;-65
2021/01/22 03:19:19;;;;;;;18.20;12.37;;;;;;;-0.59;87.94;97592.17;1700845;84;21211;-65
2021/01/22 03:21:47;;;;;;;13.43;11.55;;;;;;;-0.65;88.08;97581.02;1700805;84;21219;-65
2021/01/22 03:24:15;;;;;;;18.23;10.50;;;;;;;-0.47;86.85;97609.81;1701017;84;21227;-66
2021/01/22 03:26:43;;;;;;;28.30;13.60;;;;;;;-0.47;86.85;97609.81;1701155;84;21427;-62
2021/01/22 03:29:11;;;;;;;17.40;11.65;;;;;;;-0.42;86.84;97595.05;1701031;84;21163;-63
2021/01/22 03:31:39;;;;;;;26.87;15.20;;;;;;;-0.48;87.18;97593.68;1701105;84;21190;-63
2021/01/22 03:34:08;;;;;;;23.07;13.15;;;;;;;-0.49;87.79;97602.23;1701077;84;21201;-63
2021/01/22 03:36:36;;;;;;;16.00;11.30;;;;;;;-0.46;87.46;97603.33;1701187;84;21178;-62
2021/01/22 03:39:05;;;;;;;22.95;14.78;;;;;;;-0.41;87.15;97596.26;1699706;84;21213;-63
2021/01/22 03:41:33;;;;;;;23.57;12.98;;;;;;;-0.33;86.96;97599.66;1697271;84;21234;-63
2021/01/22 03:44:01;;;;;;;29.85;13.72;;;;;;;-0.30;86.86;97593.94;1697020;83;21193;-63
2021/01/22 03:46:29;;;;;;;21.82;14.45;;;;;;;-0.28;86.66;97596.41;1697105;83;21237;-62
2021/01/22 03:48:57;;;;;;;23.10;14.45;;;;;;;-0.24;86.47;97592.78;1697402;84;21205;-63
2021/01/22 03:51:25;;;;;;;22.52;13.60;;;;;;;-0.39;86.49;97574.50;1697330;84;21327;-63
2021/01/22 03:53:54;;;;;;;21.75;13.95;;;;;;;-0.36;86.34;97578.16;1697366;84;21196;-65
2021/01/22 03:56:22;;;;;;;24.45;15.20;;;;;;;-0.30;85.87;97570.15;1697141;84;21186;-62
2021/01/22 03:58:50;;;;;;;29.07;16.97;;;;;;;-0.30;85.87;97570.15;1697261;84;21292;-62
2021/01/22 04:01:28;;;;;;;29.07;14.13;;;;;;;-0.31;85.77;97571.08;1697017;83;21166;-63
2021/01/22 04:03:51;;;;;;;21.40;13.43;;;;;;;-0.39;85.66;97551.09;1696206;84;21162;-65
2021/01/22 04:06:19;;;;;;;20.60;14.28;;;;;;;-0.45;85.99;97547.59;1697054;84;21607;-66
2021/01/22 04:08:47;;;;;;;23.25;12.35;;;;;;;-0.45;85.99;97547.59;1697122;83;21126;-68
2021/01/22 04:11:17;;;;;;;23.60;13.03;;;;;;;-0.42;85.70;97559.34;1697016;84;21169;-67
2021/01/22 04:13:45;;;;;;;25.02;13.80;;;;;;;-0.45;85.72;97574.38;1697031;84;21174;-66
2021/01/22 04:16:13;;;;;;;24.63;13.90;;;;;;;-0.46;85.42;97586.75;1697069;83;21138;-66
2021/01/22 04:18:41;;;;;;;17.48;12.55;;;;;;;-0.54;85.01;97574.87;1697264;84;21170;-65
2021/01/22 04:21:10;;;;;;;27.10;14.70;;;;;;;-0.62;85.38;97581.66;1697639;83;21371;-66
2021/01/22 04:23:38;;;;;;;23.30;14.40;;;;;;;-0.73;86.45;97595.90;1697234;84;21229;-67
2021/01/22 04:26:06;;;;;;;17.77;12.10;;;;;;;-0.71;86.63;97583.91;1697217;84;21228;-67
2021/01/22 04:28:38;;;;;;;21.85;13.03;;;;;;;-0.71;87.50;97583.45;1697139;84;21228;-67
2021/01/22 04:31:07;;;;;;;27.02;13.95;;;;;;;-0.74;87.98;97570.05;1697161;83;21186;-67
2021/01/22 04:33:35;;;;;;;21.30;11.90;;;;;;;-0.74;87.98;97570.05;1697320;84;21174;-67
2021/01/22 04:36:04;;;;;;;20.17;12.75;;;;;;;-0.65;87.36;97584.39;1696864;83;21198;-64
2021/01/22 04:38:33;;;;;;;18.48;12.20;;;;;;;-0.62;87.48;97584.22;1696910;84;21181;-64
2021/01/22 04:41:01;;;;;;;19.30;13.98;;;;;;;-0.64;87.66;97579.66;1724023;82;21157;-64
2021/01/22 04:43:29;;;;;;;15.35;11.63;;;;;;;-0.66;87.94;97574.30;1724363;83;21161;-64
2021/01/22 04:45:57;;;;;;;22.02;14.90;;;;;;;-0.67;88.68;97572.64;1699504;83;21174;-64
2021/01/22 04:48:26;;;;;;;22.30;14.20;;;;;;;-0.64;87.95;97573.30;1703625;84;21135;-64
2021/01/22 04:54:37;;;;;;;26.97;15.65;;;;;;;-0.60;87.24;97563.74;1586143;90;21412;-65
2021/01/22 04:57:08;;;;;;;19.75;13.08;;;;;;;-0.54;87.13;97572.32;1552194;90;21304;-64
2021/01/22 04:59:44;;;;;;;23.60;12.78;;;;;;;-0.51;86.96;97576.00;1599130;90;21766;-63
2021/01/22 05:02:13;;;;;;;20.40;12.33;;;;;;;-0.50;86.76;97570.80;1571204;91;21696;-63
2021/01/22 05:04:42;;;;;;;21.37;14.35;;;;;;;-0.50;86.78;97566.14;1599352;90;21278;-68
2021/01/22 05:07:14;;;;;;;21.70;14.73;;;;;;;-0.50;86.78;97566.14;1571230;91;21287;-63
2021/01/22 05:09:42;;;;;;;17.32;12.58;;;;;;;-0.52;86.60;97559.88;1599105;90;21258;-63
2021/01/22 05:12:10;;;;;;;28.92;14.45;;;;;;;-0.51;86.43;97551.29;1595910;87;21158;-62
2021/01/22 05:14:39;;;;;;;40.73;15.50;;;;;;;-0.59;86.37;97539.44;1627253;88;21205;-64
2021/01/22 05:17:11;;;;;;;23.32;13.48;;;;;;;-0.61;86.49;97552.72;1627059;88;21189;-64
2021/01/22 05:19:44;;;;;;;17.17;11.00;;;;;;;-0.68;86.87;97547.59;1627145;87;21192;-65
2021/01/22 05:22:15;;;;;;;23.95;14.05;;;;;;;-0.88;87.09;97545.73;1627176;88;21586;-64
2021/01/22 05:24:46;;;;;;;18.32;13.10;;;;;;;-0.88;87.09;97545.73;1627173;87;21235;-68
2021/01/22 05:27:15;;;;;;;19.50;14.78;;;;;;;-0.85;87.12;97556.59;1627169;87;21639;-66
2021/01/22 05:29:47;;;;;;;17.73;13.10;;;;;;;-0.84;86.84;97552.31;1627628;87;21277;-67
2021/01/22 05:32:30;;;;;;;21.70;14.30;;;;;;;-0.88;87.16;97552.94;1628562;87;21194;-66
2021/01/22 05:34:59;;;;;;;22.77;16.05;;;;;;;-0.92;87.08;97544.25;1625720;88;21226;-66
2021/01/22 05:37:28;;;;;;;22.87;17.12;;;;;;;-1.03;88.17;97554.59;1624430;88;21189;-66
2021/01/22 05:40:16;;;;;;;25.77;16.07;;;;;;;-1.01;88.37;97553.21;1656893;86;21164;-66
2021/01/22 05:42:58;;;;;;;23.92;16.20;;;;;;;-1.02;88.63;97552.86;1664160;86;21163;-65
2021/01/22 05:45:42;;;;;;;25.52;13.83;;;;;;;-1.03;88.90;97550.77;1666490;86;21184;-64
2021/01/22 05:48:26;;;;;;;25.25;13.62;;;;;;;-1.00;88.58;97547.22;1664542;86;21179;-66
2021/01/22 05:50:58;;;;;;;20.57;13.98;;;;;;;-1.01;88.36;97545.12;1661239;86;21199;-65
2021/01/22 05:53:28;;;;;;;28.90;14.53;;;;;;;-1.00;88.78;97546.77;1662825;86;21183;-65
2021/01/22 05:56:10;;;;;;;20.92;12.90;;;;;;;-0.93;88.31;97542.16;1661815;86;21160;-64
2021/01/22 05:58:42;;;;;;;26.33;14.95;;;;;;;-0.93;88.31;97542.16;1680811;85;21231;-63
2021/01/22 06:01:14;;;;;;;24.43;15.93;;;;;;;-0.90;88.27;97534.81;1662025;86;21628;-65
2021/01/22 06:03:46;;;;;;;21.50;13.58;;;;;;;-0.89;88.05;97536.44;1662008;86;21604;-65
2021/01/22 06:06:15;;;;;;;19.87;14.38;;;;;;;-0.94;87.64;97522.70;1663391;85;21223;-65
2021/01/22 06:08:55;;;;;;;28.83;14.13;;;;;;;-0.84;88.04;97535.75;1671217;86;21198;-69
2021/01/22 06:11:28;;;;;;;21.62;15.10;;;;;;;-0.84;88.04;97535.75;1671096;86;21600;-70
2021/01/22 06:13:58;;;;;;;22.80;14.35;;;;;;;-0.83;87.83;97536.95;1671015;86;21615;-70
2021/01/22 06:16:29;;;;;;;20.20;13.15;;;;;;;-0.79;87.78;97542.25;1671318;86;21597;-70
2021/01/22 06:19:09;;;;;;;17.37;12.00;;;;;;;-0.77;87.46;97545.53;1671346;86;21267;-69
2021/01/22 06:24:44;;;;;;;17.70;14.90;;;;;;;-0.74;87.02;97528.78;1735538;83;21221;-70
2021/01/22 06:27:13;;;;;;;20.30;14.47;;;;;;;-0.74;87.02;97528.78;1707796;84;21179;-69
2021/01/22 06:29:44;;;;;;;24.72;15.20;;;;;;;-0.74;87.16;97517.31;1707480;82;21221;-68
2021/01/22 06:32:14;;;;;;;17.95;12.63;;;;;;;-0.72;87.30;97512.14;1707639;84;21183;-68
2021/01/22 06:34:44;;;;;;;22.45;14.55;;;;;;;-0.73;87.27;97510.48;1708298;83;21226;-69
2021/01/22 06:37:13;;;;;;;21.75;13.28;;;;;;;-0.67;87.08;97515.27;1707945;82;21207;-69
2021/01/22 06:39:44;;;;;;;29.63;14.90;;;;;;;-0.64;87.13;97511.27;1707838;84;21179;-68
2021/01/22 06:42:12;;;;;;;23.85;13.62;;;;;;;-0.60;87.14;97507.19;1707671;84;21604;-69
2021/01/22 06:44:44;;;;;;;19.00;13.58;;;;;;;-0.63;87.17;97518.84;1679541;85;21144;-69
2021/01/22 06:47:12;;;;;;;21.23;14.03;;;;;;;-0.19;93.27;97512.95;1679391;85;21397;-65
2021/01/22 06:49:42;;;;;;;23.10;14.80;;;;;;;-0.19;93.27;97512.95;1679567;85;21254;-65
2021/01/22 06:52:16;;;;;;;24.77;14.45;;;;;;;-0.24;89.43;97500.92;1679072;84;21240;-65
2021/01/22 06:55:04;;;;;;;25.37;15.50;;;;;;;-0.20;89.35;97496.02;1679184;85;21563;-66
2021/01/22 06:57:34;;;;;;;19.23;12.75;;;;;;;-0.27;86.91;97486.59;1680282;84;21175;-64
2021/01/22 07:00:11;;;;;;;21.30;13.83;;;;;;;-0.27;86.91;97486.59;1674971;84;21185;-64
2021/01/22 07:02:41;;;;;;;23.95;14.25;;;;;;;-0.25;88.04;97475.86;1665807;84;21279;-65
2021/01/22 07:08:14;;;;;;;25.95;15.53;;;;;;;-0.25;87.30;97478.41;1823423;77;22625;-67
2021/01/22 07:11:02;;;;;;;38.95;17.35;;;;;;;-0.13;87.19;97482.81;1826953;78;21127;-66
2021/01/22 07:13:35;;;;;;;28.30;17.67;;;;;;;-0.17;86.74;97481.34;1791050;80;21317;-68
2021/01/22 07:16:13;;;;;;;29.87;20.92;;;;;;;-0.12;88.59;97484.91;1759834;81;21576;-74
2021/01/22 07:18:57;;;;;;;34.75;23.12;;;;;;;-0.16;87.05;97471.97;1762918;81;21160;-69
2021/01/22 07:21:55;;;;;;;29.32;18.45;;;;;;;-0.25;87.61;97472.48;1744693;81;21324;-69
2021/01/22 07:24:25;;;;;;;22.55;16.00;;;;;;;-0.09;87.11;97472.80;1708319;83;21754;-71
2021/01/22 07:26:56;;;;;;;25.05;14.28;;;;;;;0.02;88.40;97473.44;1721827;83;21377;-71
2021/01/22 07:29:27;;;;;;;25.80;17.87;;;;;;;0.14;87.14;97473.17;1695490;83;21624;-70
2021/01/22 07:32:01;;;;;;;29.00;18.00;;;;;;;0.22;86.60;97459.05;1695532;83;21140;-70
2021/01/22 07:34:49;;;;;;;30.17;19.10;;;;;;;0.34;87.08;97461.33;1697238;82;21646;-71
2021/01/22 07:37:42;;;;;;;26.70;18.65;;;;;;;0.52;86.54;97461.48;1693113;84;21181;-71
2021/01/22 07:40:13;;;;;;;29.30;16.48;;;;;;;0.50;85.21;97439.05;1748629;82;21169;-70
2021/01/22 07:42:43;;;;;;;27.55;17.45;;;;;;;0.71;86.12;97448.39;1748148;82;21248;-70
2021/01/22 07:45:17;;;;;;;29.40;15.85;;;;;;;0.91;86.08;97452.64;1747987;82;21197;-71
2021/01/22 07:47:53;;;;;;;32.78;19.45;;;;;;;1.15;86.19;97455.86;1741325;82;21178;-70
2021/01/22 07:50:21;;;;;;;27.98;18.77;;;;;;;1.31;84.39;97448.39;1662876;84;21140;-70
2021/01/22 07:52:50;;;;;;;36.23;20.82;;;;;;;1.46;84.00;97462.39;1690181;83;21617;-70
2021/01/22 07:55:42;;;;;;;29.70;18.05;;;;;;;1.63;84.33;97462.14;1676609;84;21648;-68
2021/01/22 07:58:10;;;;;;;40.15;19.30;;;;;;;1.79;82.21;97471.25;1785529;80;21592;-69
2021/01/22 08:00:39;;;;;;;29.67;18.70;;;;;;;1.95;82.42;97468.50;1785514;80;21219;-69
2021/01/22 08:03:08;;;;;;;28.47;16.42;;;;;;;1.94;81.70;97457.09;1786084;80;21200;-69
2021/01/22 08:05:39;;;;;;;25.10;15.32;;;;;;;1.97;81.10;97453.05;1784116;80;21120;-69
2021/01/22 08:08:39;;;;;;;26.82;13.68;;;;;;;2.13;82.26;97451.92;1725276;83;21155;-69
2021/01/22 08:11:20;;;;;;;19.32;11.48;;;;;;;2.25;81.82;97459.25;1789507;80;21172;-70
2021/01/22 08:13:48;;;;;;;23.42;13.20;;;;;;;2.44;81.92;97457.08;1768607;81;21232;-68
2021/01/22 08:16:23;;;;;;;12.50;9.05;;;;;;;2.50;80.44;97458.38;1768116;81;21212;-68
2021/01/22 08:18:52;;;;;;;14.47;7.70;;;;;;;2.61;79.81;97465.69;1767902;81;21168;-66
2021/01/22 08:21:21;;;;;;;13.85;8.78;;;;;;;2.75;80.30;97466.86;1767450;81;21162;-68
2021/01/22 08:23:49;;;;;;;14.75;6.65;;;;;;;2.88;79.41;97459.92;1767692;81;21152;-68
2021/01/22 08:26:17;;;;;;;10.50;6.92;;;;;;;3.02;78.69;97453.02;1767782;81;21193;-66
2021/01/22 08:28:51;;;;;;;9.00;6.80;;;;;;;3.15;78.78;97457.65;1767735;81;21729;-68
2021/01/22 08:31:17;;;;;;;13.93;7.12;;;;;;;3.31;77.93;97460.73;1767639;81;21114;-68
2021/01/22 08:33:47;;;;;;;10.38;5.85;;;;;;;3.50;77.27;97458.47;1766763;81;21153;-68
2021/01/22 08:36:16;;;;;;;12.13;7.17;;;;;;;3.56;76.07;97452.91;1767525;81;21173;-66
2021/01/22 08:38:44;;;;;;;11.18;6.42;;;;;;;3.81;75.56;97473.28;1767361;81;21192;-66
2021/01/22 08:41:25;;;;;;;9.73;5.92;;;;;;;4.08;75.22;97473.48;1767684;81;21200;-66
2021/01/22 08:43:58;;;;;;;10.38;5.72;;;;;;;4.30;73.34;97464.04;1767717;81;21226;-66
2021/01/22 08:46:27;;;;;;;12.37;5.55;;;;;;;4.61;72.53;97475.84;1767431;81;21129;-67
2021/01/22 08:48:55;;;;;;;13.35;7.37;;;;;;;4.93;72.46;97475.93;1767504;81;21197;-67
2021/01/22 08:51:51;;;;;;;11.57;6.75;;;;;;;5.26;71.21;97473.27;1767061;81;21192;-65
2021/01/22 08:54:19;;;;;;;8.90;5.42;;;;;;;5.49;69.58;97481.73;1635432;87;21160;-64
2021/01/22 08:57:06;;;;;;;7.12;5.28;;;;;;;5.94;68.92;97484.97;1642646;87;21164;-65
2021/01/22 09:00:13;;;;;;;7.50;4.70;;;;;;;6.20;66.25;97475.91;1642870;86;22213;-68
2021/01/22 09:02:44;;;;;;;13.10;6.22;;;;;;;6.57;65.44;97474.48;1733047;82;21630;-67
2021/01/22 09:05:19;;;;;;;11.57;6.70;;;;;;;6.68;63.70;97481.30;1732890;83;21210;-66
2021/01/22 09:07:46;;;;;;;13.50;8.43;;;;;;;6.84;63.49;97481.63;1732414;82;21127;-66
2021/01/22 09:10:29;;;;;;;12.35;6.90;;;;;;;7.10;63.87;97477.62;1733026;82;21631;-66
2021/01/22 09:13:36;;;;;;;10.72;6.72;;;;;;;7.32;62.15;97480.42;1733219;82;21158;-66
2021/01/22 09:16:07;;;;;;;9.33;6.47;;;;;;;7.31;61.30;97479.29;1640705;87;21224;-66
2021/01/22 09:18:35;;;;;;;12.37;6.08;;;;;;;7.40;62.01;97475.88;1639911;87;21625;-66
2021/01/22 09:21:07;;;;;;;12.15;8.60;;;;;;;7.48;60.31;97474.27;1639871;87;21599;-66
2021/01/22 09:23:37;;;;;;;13.43;7.05;;;;;;;7.55;61.76;97470.65;1608517;88;21613;-66
2021/01/22 09:26:06;;;;;;;11.25;7.28;;;;;;;7.26;60.33;97486.61;1608403;89;21195;-66
2021/01/22 09:28:34;;;;;;;8.95;5.97;;;;;;;6.86;61.06;97479.72;1608611;88;21148;-66
2021/01/22 09:31:03;;;;;;;10.60;6.70;;;;;;;7.73;59.88;97475.50;1585848;89;21180;-66
2021/01/22 09:33:31;;;;;;;10.30;6.87;;;;;;;7.34;60.25;97475.14;1608679;88;21222;-66
2021/01/22 09:36:00;;;;;;;9.70;7.87;;;;;;;7.88;59.17;97468.13;1608474;89;21184;-71
2021/01/22 09:38:29;;;;;;;12.80;7.42;;;;;;;7.98;58.40;97465.05;1608944;88;21179;-67
2021/01/22 09:40:57;;;;;;;12.63;6.97;;;;;;;8.09;58.05;97466.21;1608870;89;21226;-66
2021/01/22 09:43:25;;;;;;;11.20;6.85;;;;;;;7.97;57.80;97449.22;1608909;88;21219;-66
2021/01/22 09:45:56;;;;;;;11.55;7.20;;;;;;;7.96;57.92;97449.70;1608790;89;21188;-66
2021/01/22 09:48:25;;;;;;;10.38;5.78;;;;;;;8.29;57.57;97443.23;1608857;89;21227;-66
2021/01/22 09:50:54;;;;;;;12.30;6.95;;;;;;;9.16;56.13;97441.05;1608753;88;21258;-66
2021/01/22 09:53:22;;;;;;;12.30;7.20;;;;;;;9.94;53.06;97432.50;1611695;87;21187;-66
2021/01/22 09:55:51;;;;;;;15.13;8.03;;;;;;;10.63;51.36;97425.13;1614049;87;21577;-67
2021/01/22 09:58:20;;;;;;;11.88;7.42;;;;;;;10.72;50.87;97425.98;1607426;88;21159;-67
2021/01/22 10:00:48;;;;;;;16.30;8.48;;;;;;;10.89;51.36;97428.98;1607504;89;21231;-67
2021/01/22 10:03:16;;;;;;;11.45;7.58;;;;;;;10.22;50.96;97424.13;1607423;89;21200;-66
2021/01/22 10:05:45;;;;;;;13.20;7.20;;;;;;;10.67;50.21;97421.25;1591897;90;21208;-66
2021/01/22 10:08:15;;;;;;;12.28;8.33;;;;;;;11.09;49.73;97417.33;1607393;89;21172;-66
2021/01/22 10:10:45;;;;;;;12.53;7.75;;;;;;;10.76;50.17;97413.83;1606906;89;21175;-66
2021/01/22 10:13:14;;;;;;;10.45;7.92;;;;;;;10.25;51.68;97403.53;1613922;88;21176;-67
2021/01/22 10:15:42;;;;;;;14.15;6.95;;;;;;;9.94;51.99;97398.78;1636779;86;21152;-68
2021/01/22 10:18:13;;;;;;;15.10;9.05;;;;;;;9.43;53.12;97398.23;1670545;85;21203;-66
2021/01/22 10:20:41;;;;;;;11.33;7.60;;;;;;;9.43;53.42;97396.94;1641628;86;21605;-66
2021/01/22 10:23:10;;;;;;;12.50;7.35;;;;;;;9.42;53.61;97391.89;1668856;84;21182;-68
2021/01/22 10:25:38;;;;;;;11.20;6.85;;;;;;;9.44;53.32;97388.69;1626436;86;21701;-70
2021/01/22 10:28:07;;;;;;;11.38;6.92;;;;;;;9.30;54.07;97378.86;1648252;86;21460;-70
2021/01/22 10:30:43;;;;;;;15.58;8.28;;;;;;;10.34;51.38;97377.96;1630884;86;21585;-69
2021/01/22 10:37:05;;;;;;;10.30;6.85;;;;;;;9.87;52.13;97378.32;1642994;87;21144;-69
2021/01/22 10:39:53;;;;;;;12.43;7.17;;;;;;;9.98;52.73;97367.69;1642962;87;21172;-70
2021/01/22 10:42:21;;;;;;;14.13;8.33;;;;;;;10.75;50.38;97362.85;1711011;84;21184;-73
2021/01/22 10:44:50;;;;;;;16.15;7.90;;;;;;;11.12;49.24;97360.34;1735259;82;21167;-69
2021/01/22 10:47:18;;;;;;;13.18;8.03;;;;;;;11.32;48.15;97349.97;1735134;83;21258;-70
2021/01/22 10:49:48;;;;;;;18.87;9.65;;;;;;;11.13;49.37;97351.06;1733505;83;21321;-70
2021/01/22 10:52:16;;;;;;;14.35;8.35;;;;;;;10.68;50.00;97341.58;1735808;83;21195;-69
2021/01/22 10:54:44;;;;;;;16.57;8.68;;;;;;;11.04;49.82;97343.44;1734526;83;21151;-69
2021/01/22 10:57:12;;;;;;;17.27;8.58;;;;;;;11.48;48.18;97339.55;1733158;83;21184;-70
2021/01/22 10:59:40;;;;;;;12.68;8.28;;;;;;;12.42;46.10;97329.28;1734011;81;21131;-70
2021/01/22 11:02:09;;;;;;;12.78;8.68;;;;;;;12.50;45.06;97321.92;1733745;83;21423;-69
2021/01/22 11:04:40;;;;;;;12.88;8.30;;;;;;;12.65;45.44;97319.73;1731588;83;21431;-69
2021/01/22 11:07:09;;;;;;;15.98;9.75;;;;;;;11.94;46.62;97317.27;1734813;83;21632;-69
2021/01/22 11:09:39;;;;;;;13.93;8.58;;;;;;;11.84;46.79;97312.23;1761494;81;21184;-66
2021/01/22 11:12:09;;;;;;;14.63;8.38;;;;;;;12.26;45.94;97304.61;1765232;81;21267;-67
2021/01/22 11:14:37;;;;;;;11.70;8.45;;;;;;;12.22;46.36;97292.42;1765408;81;21167;-66
2021/01/22 11:17:06;;;;;;;14.30;9.00;;;;;;;11.96;46.84;97293.17;1764989;81;21316;-66
2021/01/22 11:19:36;;;;;;;16.35;10.80;;;;;;;12.03;46.54;97295.42;1765067;81;21585;-67
2021/01/22 11:22:04;;;;;;;13.68;8.00;;;;;;;11.90;46.33;97289.44;1765132;81;21209;-67
2021/01/22 11:24:35;;;;;;;16.20;8.78;;;;;;;11.88;46.82;97284.91;1765089;81;21412;-69
2021/01/22 11:27:05;;;;;;;12.82;8.25;;;;;;;11.87;47.11;97287.17;1765908;81;21291;-67
2021/01/22 11:29:33;;;;;;;11.65;7.22;;;;;;;12.21;45.78;97284.80;1765336;81;21197;-67
2021/01/22 11:32:01;;;;;;;12.30;8.30;;;;;;;11.48;47.85;97277.14;1765741;81;21858;-67
2021/01/22 11:34:32;;;;;;;16.85;10.43;;;;;;;11.54;47.56;97267.89;1765801;81;21153;-66
2021/01/22 11:37:01;;;;;;;11.73;8.55;;;;;;;10.20;50.41;97270.84;1765572;81;21542;-66
2021/01/22 11:39:32;;;;;;;10.88;6.92;;;;;;;9.73;52.13;97261.36;1765189;81;21665;-66
2021/01/22 11:42:00;;;;;;;13.28;7.30;;;;;;;10.63;50.48;97264.14;1765239;81;21374;-66
2021/01/22 11:44:29;;;;;;;16.37;9.85;;;;;;;10.80;48.99;97261.91;1765549;81;21164;-66
2021/01/22 11:46:57;;;;;;;16.67;8.48;;;;;;;10.25;51.41;97262.11;1765090;81;21287;-67
2021/01/22 11:49:26;;;;;;;12.63;7.55;;;;;;;10.50;51.82;97259.92;1764789;81;21213;-70
2021/01/22 11:51:55;;;;;;;12.43;8.85;;;;;;;11.20;49.39;97256.41;1765197;81;21302;-67
2021/01/22 11:54:23;;;;;;;15.15;7.72;;;;;;;11.42;48.61;97255.23;1765388;81;21598;-66
2021/01/22 11:56:51;;;;;;;11.43;7.53;;;;;;;10.81;50.09;97249.74;1765708;81;21380;-66
2021/01/22 11:59:20;;;;;;;11.75;7.17;;;;;;;11.55;47.70;97248.23;1766026;81;21219;-69
2021/01/22 12:01:50;;;;;;;10.23;7.45;;;;;;;11.02;48.90;97243.56;1765701;81;21574;-68
2021/01/22 12:04:18;;;;;;;11.85;7.47;;;;;;;10.55;50.40;97248.55;1765414;81;21772;-66